sensor_id;sensor_type;location;lat;lon;timestamp;temperature;humidity
770;DHT22;368;48.698;9.116;2024-02-21T00:01:27;4.90;99.90
770;DHT22;368;48.698;9.116;2024-02-21T00:03:54;5.30;99.90
770;DHT22;368;48.698;9.116;2024-02-21T00:06:20;5.10;99.90
770;DHT22;368;48.698;9.116;2024-02-21T00:08:47;5.10;99.90
770;DHT22;368;48.698;9.116;2024-02-21T00:11:15;5.20;99.90
770;DHT22;368;48.698;9.116;2024-02-21T00:13:42;5.30;99.90
770;DHT22;368;48.698;9.116;2024-02-21T00:16:09;5.20;99.90
770;DHT22;368;48.698;9.116;2024-02-21T00:18:36;5.40;99.90
770;DHT22;368;48.698;9.116;2024-02-21T00:21:03;5.20;99.90
770;DHT22;368;48.698;9.116;2024-02-21T00:23:29;5.30;99.90
770;DHT22;368;48.698;9.116;2024-02-21T00:25:56;5.10;99.90
770;DHT22;368;48.698;9.116;2024-02-21T00:28:24;5.20;99.90
770;DHT22;368;48.698;9.116;2024-02-21T00:30:51;5.60;99.90
770;DHT22;368;48.698;9.116;2024-02-21T00:33:18;5.20;99.90
770;DHT22;368;48.698;9.116;2024-02-21T00:35:45;5.40;99.90
770;DHT22;368;48.698;9.116;2024-02-21T00:38:12;5.40;99.90
770;DHT22;368;48.698;9.116;2024-02-21T00:40:39;5.20;99.90
770;DHT22;368;48.698;9.116;2024-02-21T00:43:06;5.20;99.90
770;DHT22;368;48.698;9.116;2024-02-21T00:45:34;5.30;99.90
770;DHT22;368;48.698;9.116;2024-02-21T00:48:00;5.10;99.90
770;DHT22;368;48.698;9.116;2024-02-21T00:50:27;5.10;99.90
770;DHT22;368;48.698;9.116;2024-02-21T00:52:54;5.30;99.90
770;DHT22;368;48.698;9.116;2024-02-21T00:55:21;5.10;99.90
770;DHT22;368;48.698;9.116;2024-02-21T00:57:48;5.10;99.90
770;DHT22;368;48.698;9.116;2024-02-21T01:00:15;5.00;99.90
770;DHT22;368;48.698;9.116;2024-02-21T01:02:43;5.00;99.90
770;DHT22;368;48.698;9.116;2024-02-21T01:05:10;4.90;99.90
770;DHT22;368;48.698;9.116;2024-02-21T01:07:37;4.90;99.90
770;DHT22;368;48.698;9.116;2024-02-21T01:10:05;5.00;99.90
770;DHT22;368;48.698;9.116;2024-02-21T01:12:32;5.00;99.90
770;DHT22;368;48.698;9.116;2024-02-21T01:14:58;5.10;99.90
770;DHT22;368;48.698;9.116;2024-02-21T01:17:25;5.40;99.90
770;DHT22;368;48.698;9.116;2024-02-21T01:19:53;5.30;99.90
770;DHT22;368;48.698;9.116;2024-02-21T01:22:20;5.40;99.90
770;DHT22;368;48.698;9.116;2024-02-21T01:24:47;5.60;99.90
770;DHT22;368;48.698;9.116;2024-02-21T01:27:13;5.80;99.90
770;DHT22;368;48.698;9.116;2024-02-21T01:29:40;5.80;99.90
770;DHT22;368;48.698;9.116;2024-02-21T01:32:07;5.80;99.90
770;DHT22;368;48.698;9.116;2024-02-21T01:34:34;5.50;99.90
770;DHT22;368;48.698;9.116;2024-02-21T01:37:02;5.60;99.90
770;DHT22;368;48.698;9.116;2024-02-21T01:39:30;5.50;99.90
770;DHT22;368;48.698;9.116;2024-02-21T01:41:56;5.80;99.90
770;DHT22;368;48.698;9.116;2024-02-21T01:44:23;5.60;99.90
770;DHT22;368;48.698;9.116;2024-02-21T01:46:50;5.50;99.90
770;DHT22;368;48.698;9.116;2024-02-21T01:49:18;5.80;99.90
770;DHT22;368;48.698;9.116;2024-02-21T01:51:45;5.70;99.90
770;DHT22;368;48.698;9.116;2024-02-21T01:54:14;5.60;99.90
770;DHT22;368;48.698;9.116;2024-02-21T01:56:40;5.80;99.90
770;DHT22;368;48.698;9.116;2024-02-21T01:59:07;5.90;99.90
770;DHT22;368;48.698;9.116;2024-02-21T02:01:34;5.80;99.90
770;DHT22;368;48.698;9.116;2024-02-21T02:04:01;5.70;99.90
770;DHT22;368;48.698;9.116;2024-02-21T02:06:30;5.70;99.90
770;DHT22;368;48.698;9.116;2024-02-21T02:08:57;5.60;99.90
770;DHT22;368;48.698;9.116;2024-02-21T02:11:25;5.70;99.90
770;DHT22;368;48.698;9.116;2024-02-21T02:13:52;5.70;99.90
770;DHT22;368;48.698;9.116;2024-02-21T02:16:20;5.50;99.90
770;DHT22;368;48.698;9.116;2024-02-21T02:18:46;5.80;99.90
770;DHT22;368;48.698;9.116;2024-02-21T02:21:23;5.80;99.90
770;DHT22;368;48.698;9.116;2024-02-21T02:23:51;5.50;99.90
770;DHT22;368;48.698;9.116;2024-02-21T02:26:18;5.70;99.90
770;DHT22;368;48.698;9.116;2024-02-21T02:28:45;5.50;99.90
770;DHT22;368;48.698;9.116;2024-02-21T02:31:11;5.80;99.90
770;DHT22;368;48.698;9.116;2024-02-21T02:33:38;5.70;99.90
770;DHT22;368;48.698;9.116;2024-02-21T02:36:05;5.80;99.90
770;DHT22;368;48.698;9.116;2024-02-21T02:38:32;5.80;99.90
770;DHT22;368;48.698;9.116;2024-02-21T02:41:00;6.00;99.90
770;DHT22;368;48.698;9.116;2024-02-21T02:43:27;5.90;99.90
770;DHT22;368;48.698;9.116;2024-02-21T02:45:53;5.80;99.90
770;DHT22;368;48.698;9.116;2024-02-21T02:48:21;6.00;99.90
770;DHT22;368;48.698;9.116;2024-02-21T02:50:47;6.00;99.90
770;DHT22;368;48.698;9.116;2024-02-21T02:53:15;5.80;99.90
770;DHT22;368;48.698;9.116;2024-02-21T02:55:41;5.80;99.90
770;DHT22;368;48.698;9.116;2024-02-21T02:58:10;5.90;99.90
770;DHT22;368;48.698;9.116;2024-02-21T03:00:36;5.90;99.90
770;DHT22;368;48.698;9.116;2024-02-21T03:03:04;6.10;99.90
770;DHT22;368;48.698;9.116;2024-02-21T03:05:31;6.00;99.90
770;DHT22;368;48.698;9.116;2024-02-21T03:07:58;6.00;99.90
770;DHT22;368;48.698;9.116;2024-02-21T03:10:25;5.90;99.90
770;DHT22;368;48.698;9.116;2024-02-21T03:12:52;6.10;99.90
770;DHT22;368;48.698;9.116;2024-02-21T03:15:20;5.90;99.90
770;DHT22;368;48.698;9.116;2024-02-21T03:17:47;5.80;99.90
770;DHT22;368;48.698;9.116;2024-02-21T03:20:14;5.80;99.90
770;DHT22;368;48.698;9.116;2024-02-21T03:22:41;5.90;99.90
770;DHT22;368;48.698;9.116;2024-02-21T03:25:09;5.70;99.90
770;DHT22;368;48.698;9.116;2024-02-21T03:27:36;5.60;99.90
770;DHT22;368;48.698;9.116;2024-02-21T03:30:04;5.70;99.90
770;DHT22;368;48.698;9.116;2024-02-21T03:32:32;5.70;99.90
770;DHT22;368;48.698;9.116;2024-02-21T03:35:01;5.50;99.90
770;DHT22;368;48.698;9.116;2024-02-21T03:37:27;5.40;99.90
770;DHT22;368;48.698;9.116;2024-02-21T03:39:54;5.70;99.90
770;DHT22;368;48.698;9.116;2024-02-21T03:42:21;5.70;99.90
770;DHT22;368;48.698;9.116;2024-02-21T03:44:48;5.50;99.90
770;DHT22;368;48.698;9.116;2024-02-21T03:47:15;5.70;99.90
770;DHT22;368;48.698;9.116;2024-02-21T03:49:43;5.60;99.90
770;DHT22;368;48.698;9.116;2024-02-21T03:52:10;5.70;99.90
770;DHT22;368;48.698;9.116;2024-02-21T03:54:36;5.60;99.90
770;DHT22;368;48.698;9.116;2024-02-21T03:57:05;5.60;99.90
770;DHT22;368;48.698;9.116;2024-02-21T03:59:32;5.70;99.90
770;DHT22;368;48.698;9.116;2024-02-21T04:01:58;5.70;99.90
770;DHT22;368;48.698;9.116;2024-02-21T04:04:26;5.30;99.90
770;DHT22;368;48.698;9.116;2024-02-21T04:06:54;5.50;99.90
770;DHT22;368;48.698;9.116;2024-02-21T04:09:20;5.60;99.90
770;DHT22;368;48.698;9.116;2024-02-21T04:11:47;5.70;99.90
770;DHT22;368;48.698;9.116;2024-02-21T04:14:14;5.70;99.90
770;DHT22;368;48.698;9.116;2024-02-21T04:16:41;5.60;99.90
770;DHT22;368;48.698;9.116;2024-02-21T04:19:07;5.60;99.90
770;DHT22;368;48.698;9.116;2024-02-21T04:21:35;5.50;99.90
770;DHT22;368;48.698;9.116;2024-02-21T04:24:03;5.40;99.90
770;DHT22;368;48.698;9.116;2024-02-21T04:26:31;5.50;99.90
770;DHT22;368;48.698;9.116;2024-02-21T04:28:57;5.50;99.90
770;DHT22;368;48.698;9.116;2024-02-21T04:31:24;5.40;99.90
770;DHT22;368;48.698;9.116;2024-02-21T04:33:51;5.50;99.90
770;DHT22;368;48.698;9.116;2024-02-21T04:36:18;5.30;99.90
770;DHT22;368;48.698;9.116;2024-02-21T04:38:45;5.20;99.90
770;DHT22;368;48.698;9.116;2024-02-21T04:41:13;5.10;99.90
770;DHT22;368;48.698;9.116;2024-02-21T04:43:40;5.10;99.90
770;DHT22;368;48.698;9.116;2024-02-21T04:46:07;5.20;99.90
770;DHT22;368;48.698;9.116;2024-02-21T04:48:35;5.40;99.90
770;DHT22;368;48.698;9.116;2024-02-21T04:51:02;5.10;99.90
770;DHT22;368;48.698;9.116;2024-02-21T04:53:28;5.30;99.90
770;DHT22;368;48.698;9.116;2024-02-21T04:55:55;5.40;99.90
770;DHT22;368;48.698;9.116;2024-02-21T04:58:23;5.30;99.90
770;DHT22;368;48.698;9.116;2024-02-21T05:00:51;5.10;99.90
770;DHT22;368;48.698;9.116;2024-02-21T05:03:19;5.20;99.90
770;DHT22;368;48.698;9.116;2024-02-21T05:05:45;4.90;99.90
770;DHT22;368;48.698;9.116;2024-02-21T05:08:12;5.00;99.90
770;DHT22;368;48.698;9.116;2024-02-21T05:10:39;4.90;99.90
770;DHT22;368;48.698;9.116;2024-02-21T05:13:06;5.10;99.90
770;DHT22;368;48.698;9.116;2024-02-21T05:15:34;4.90;99.90
770;DHT22;368;48.698;9.116;2024-02-21T05:18:00;5.00;99.90
770;DHT22;368;48.698;9.116;2024-02-21T05:20:27;4.80;99.90
770;DHT22;368;48.698;9.116;2024-02-21T05:22:55;4.70;99.90
770;DHT22;368;48.698;9.116;2024-02-21T05:25:22;4.70;99.90
770;DHT22;368;48.698;9.116;2024-02-21T05:27:51;4.40;99.90
770;DHT22;368;48.698;9.116;2024-02-21T05:30:19;4.50;99.90
770;DHT22;368;48.698;9.116;2024-02-21T05:32:47;4.10;99.90
770;DHT22;368;48.698;9.116;2024-02-21T05:35:14;4.20;99.90
770;DHT22;368;48.698;9.116;2024-02-21T05:37:40;4.40;99.90
770;DHT22;368;48.698;9.116;2024-02-21T05:40:08;4.40;99.90
770;DHT22;368;48.698;9.116;2024-02-21T05:42:35;4.80;99.90
770;DHT22;368;48.698;9.116;2024-02-21T05:45:02;4.50;99.90
770;DHT22;368;48.698;9.116;2024-02-21T05:47:29;4.80;99.90
770;DHT22;368;48.698;9.116;2024-02-21T05:49:57;4.70;99.90
770;DHT22;368;48.698;9.116;2024-02-21T05:52:24;4.90;99.90
770;DHT22;368;48.698;9.116;2024-02-21T05:54:51;4.70;99.90
770;DHT22;368;48.698;9.116;2024-02-21T05:57:18;4.70;99.90
770;DHT22;368;48.698;9.116;2024-02-21T05:59:44;4.80;99.90
770;DHT22;368;48.698;9.116;2024-02-21T06:02:11;4.70;99.90
770;DHT22;368;48.698;9.116;2024-02-21T06:04:38;4.60;99.90
770;DHT22;368;48.698;9.116;2024-02-21T06:07:07;4.60;99.90
770;DHT22;368;48.698;9.116;2024-02-21T06:09:33;4.70;99.90
770;DHT22;368;48.698;9.116;2024-02-21T06:12:00;4.50;99.90
770;DHT22;368;48.698;9.116;2024-02-21T06:14:27;4.30;99.90
770;DHT22;368;48.698;9.116;2024-02-21T06:16:54;4.20;99.90
770;DHT22;368;48.698;9.116;2024-02-21T06:19:20;4.20;99.90
770;DHT22;368;48.698;9.116;2024-02-21T06:21:47;4.10;99.90
770;DHT22;368;48.698;9.116;2024-02-21T06:24:15;3.90;99.90
770;DHT22;368;48.698;9.116;2024-02-21T06:26:42;3.90;99.90
770;DHT22;368;48.698;9.116;2024-02-21T06:29:09;3.80;99.90
770;DHT22;368;48.698;9.116;2024-02-21T06:31:36;4.10;99.90
770;DHT22;368;48.698;9.116;2024-02-21T06:34:02;4.10;99.90
770;DHT22;368;48.698;9.116;2024-02-21T06:36:29;4.00;99.90
770;DHT22;368;48.698;9.116;2024-02-21T06:38:56;3.90;99.90
770;DHT22;368;48.698;9.116;2024-02-21T06:41:24;4.00;99.90
770;DHT22;368;48.698;9.116;2024-02-21T06:43:51;3.80;99.90
770;DHT22;368;48.698;9.116;2024-02-21T06:46:24;4.20;99.90
770;DHT22;368;48.698;9.116;2024-02-21T06:48:51;4.10;99.90
770;DHT22;368;48.698;9.116;2024-02-21T06:51:18;4.10;99.90
770;DHT22;368;48.698;9.116;2024-02-21T06:53:45;4.20;99.90
770;DHT22;368;48.698;9.116;2024-02-21T06:56:12;4.50;99.90
770;DHT22;368;48.698;9.116;2024-02-21T06:58:40;4.70;99.90
770;DHT22;368;48.698;9.116;2024-02-21T07:01:07;4.70;99.90
770;DHT22;368;48.698;9.116;2024-02-21T07:03:33;4.80;99.90
770;DHT22;368;48.698;9.116;2024-02-21T07:06:00;4.90;99.90
770;DHT22;368;48.698;9.116;2024-02-21T07:08:27;4.70;99.90
770;DHT22;368;48.698;9.116;2024-02-21T07:10:54;5.00;99.90
770;DHT22;368;48.698;9.116;2024-02-21T07:13:21;4.80;99.90
770;DHT22;368;48.698;9.116;2024-02-21T07:15:50;4.90;99.90
770;DHT22;368;48.698;9.116;2024-02-21T07:18:17;5.10;99.90
770;DHT22;368;48.698;9.116;2024-02-21T07:20:44;5.30;99.90
770;DHT22;368;48.698;9.116;2024-02-21T07:23:11;5.10;99.90
770;DHT22;368;48.698;9.116;2024-02-21T07:25:38;5.20;99.90
770;DHT22;368;48.698;9.116;2024-02-21T07:28:05;5.20;99.90
770;DHT22;368;48.698;9.116;2024-02-21T07:30:33;5.30;99.90
770;DHT22;368;48.698;9.116;2024-02-21T07:33:02;5.30;99.90
770;DHT22;368;48.698;9.116;2024-02-21T07:35:28;5.50;99.90
770;DHT22;368;48.698;9.116;2024-02-21T07:37:55;5.50;99.90
770;DHT22;368;48.698;9.116;2024-02-21T07:40:23;5.70;99.90
770;DHT22;368;48.698;9.116;2024-02-21T07:42:49;6.00;99.90
770;DHT22;368;48.698;9.116;2024-02-21T07:45:16;6.10;99.90
770;DHT22;368;48.698;9.116;2024-02-21T07:47:43;6.10;99.90
770;DHT22;368;48.698;9.116;2024-02-21T07:50:11;6.10;99.90
770;DHT22;368;48.698;9.116;2024-02-21T07:52:41;6.10;99.90
770;DHT22;368;48.698;9.116;2024-02-21T07:55:08;6.30;99.90
770;DHT22;368;48.698;9.116;2024-02-21T07:57:36;6.40;99.90
770;DHT22;368;48.698;9.116;2024-02-21T08:00:03;6.50;99.90
770;DHT22;368;48.698;9.116;2024-02-21T08:02:30;6.80;99.90
770;DHT22;368;48.698;9.116;2024-02-21T08:04:57;7.00;99.90
770;DHT22;368;48.698;9.116;2024-02-21T08:07:25;7.10;99.90
770;DHT22;368;48.698;9.116;2024-02-21T08:09:54;7.00;99.90
770;DHT22;368;48.698;9.116;2024-02-21T08:12:21;7.00;99.90
770;DHT22;368;48.698;9.116;2024-02-21T08:14:47;7.20;99.90
770;DHT22;368;48.698;9.116;2024-02-21T08:17:14;7.50;99.90
770;DHT22;368;48.698;9.116;2024-02-21T08:19:41;7.30;99.90
770;DHT22;368;48.698;9.116;2024-02-21T08:22:08;7.20;99.90
770;DHT22;368;48.698;9.116;2024-02-21T08:24:36;7.40;99.90
770;DHT22;368;48.698;9.116;2024-02-21T08:27:03;7.70;99.90
770;DHT22;368;48.698;9.116;2024-02-21T08:29:31;7.60;99.90
770;DHT22;368;48.698;9.116;2024-02-21T08:31:58;7.70;99.90
770;DHT22;368;48.698;9.116;2024-02-21T08:34:25;7.90;99.90
770;DHT22;368;48.698;9.116;2024-02-21T08:36:52;8.10;99.90
770;DHT22;368;48.698;9.116;2024-02-21T08:39:18;8.00;99.90
770;DHT22;368;48.698;9.116;2024-02-21T08:41:46;8.00;99.90
770;DHT22;368;48.698;9.116;2024-02-21T08:44:13;8.40;99.90
770;DHT22;368;48.698;9.116;2024-02-21T08:46:40;8.60;99.90
770;DHT22;368;48.698;9.116;2024-02-21T08:49:07;8.10;99.90
770;DHT22;368;48.698;9.116;2024-02-21T08:51:34;8.40;99.90
770;DHT22;368;48.698;9.116;2024-02-21T08:54:01;8.60;99.90
770;DHT22;368;48.698;9.116;2024-02-21T08:56:30;8.50;99.90
770;DHT22;368;48.698;9.116;2024-02-21T08:58:58;8.90;99.90
770;DHT22;368;48.698;9.116;2024-02-21T09:01:26;8.60;99.90
770;DHT22;368;48.698;9.116;2024-02-21T09:03:54;8.70;99.90
770;DHT22;368;48.698;9.116;2024-02-21T09:06:22;8.70;99.90
770;DHT22;368;48.698;9.116;2024-02-21T09:08:49;8.60;99.90
770;DHT22;368;48.698;9.116;2024-02-21T09:11:15;8.90;99.90
770;DHT22;368;48.698;9.116;2024-02-21T09:13:42;8.80;99.90
770;DHT22;368;48.698;9.116;2024-02-21T09:16:10;9.00;99.90
770;DHT22;368;48.698;9.116;2024-02-21T09:18:37;9.10;99.90
770;DHT22;368;48.698;9.116;2024-02-21T09:21:04;8.90;99.90
770;DHT22;368;48.698;9.116;2024-02-21T09:23:31;8.80;99.90
770;DHT22;368;48.698;9.116;2024-02-21T09:25:58;8.70;99.90
770;DHT22;368;48.698;9.116;2024-02-21T09:28:26;9.20;99.90
770;DHT22;368;48.698;9.116;2024-02-21T09:30:52;8.80;99.90
770;DHT22;368;48.698;9.116;2024-02-21T09:33:21;9.40;99.60
770;DHT22;368;48.698;9.116;2024-02-21T09:35:47;9.20;99.80
770;DHT22;368;48.698;9.116;2024-02-21T09:38:15;9.60;99.50
770;DHT22;368;48.698;9.116;2024-02-21T09:40:41;9.80;99.20
770;DHT22;368;48.698;9.116;2024-02-21T09:43:08;9.80;98.80
770;DHT22;368;48.698;9.116;2024-02-21T09:45:35;10.00;97.10
770;DHT22;368;48.698;9.116;2024-02-21T09:48:32;10.40;97.50
770;DHT22;368;48.698;9.116;2024-02-21T09:51:02;11.40;96.30
770;DHT22;368;48.698;9.116;2024-02-21T09:53:31;11.60;94.90
770;DHT22;368;48.698;9.116;2024-02-21T09:55:59;11.80;94.30
770;DHT22;368;48.698;9.116;2024-02-21T09:58:26;11.90;94.30
770;DHT22;368;48.698;9.116;2024-02-21T10:00:53;11.80;93.80
770;DHT22;368;48.698;9.116;2024-02-21T10:03:20;11.60;93.50
770;DHT22;368;48.698;9.116;2024-02-21T10:05:49;11.30;93.70
770;DHT22;368;48.698;9.116;2024-02-21T10:08:16;11.40;93.90
770;DHT22;368;48.698;9.116;2024-02-21T10:10:43;11.30;93.50
770;DHT22;368;48.698;9.116;2024-02-21T10:13:11;11.40;93.60
770;DHT22;368;48.698;9.116;2024-02-21T10:16:00;12.10;93.50
770;DHT22;368;48.698;9.116;2024-02-21T10:18:27;13.30;91.80
770;DHT22;368;48.698;9.116;2024-02-21T10:21:04;13.30;90.50
770;DHT22;368;48.698;9.116;2024-02-21T10:23:44;13.10;90.20
770;DHT22;368;48.698;9.116;2024-02-21T10:26:11;12.70;90.70
770;DHT22;368;48.698;9.116;2024-02-21T10:28:39;12.80;90.40
770;DHT22;368;48.698;9.116;2024-02-21T10:31:08;12.40;90.40
770;DHT22;368;48.698;9.116;2024-02-21T10:33:35;12.00;90.50
770;DHT22;368;48.698;9.116;2024-02-21T10:36:10;12.20;90.90
770;DHT22;368;48.698;9.116;2024-02-21T10:38:38;12.40;90.30
770;DHT22;368;48.698;9.116;2024-02-21T10:41:05;12.40;89.00
770;DHT22;368;48.698;9.116;2024-02-21T10:43:38;13.00;88.00
770;DHT22;368;48.698;9.116;2024-02-21T10:46:06;12.80;88.70
770;DHT22;368;48.698;9.116;2024-02-21T10:48:41;12.60;88.20
770;DHT22;368;48.698;9.116;2024-02-21T10:51:14;12.40;89.40
770;DHT22;368;48.698;9.116;2024-02-21T10:53:45;11.80;89.70
770;DHT22;368;48.698;9.116;2024-02-21T10:56:21;12.10;90.10
770;DHT22;368;48.698;9.116;2024-02-21T10:58:49;12.30;89.90
770;DHT22;368;48.698;9.116;2024-02-21T11:01:17;12.60;90.10
770;DHT22;368;48.698;9.116;2024-02-21T11:03:45;12.30;89.00
770;DHT22;368;48.698;9.116;2024-02-21T11:06:16;12.30;87.70
770;DHT22;368;48.698;9.116;2024-02-21T11:08:43;12.40;87.80
770;DHT22;368;48.698;9.116;2024-02-21T11:11:12;12.40;88.20
770;DHT22;368;48.698;9.116;2024-02-21T11:13:43;12.60;87.70
770;DHT22;368;48.698;9.116;2024-02-21T11:16:20;12.40;86.60
770;DHT22;368;48.698;9.116;2024-02-21T11:18:48;12.80;87.30
770;DHT22;368;48.698;9.116;2024-02-21T11:21:16;12.90;86.50
770;DHT22;368;48.698;9.116;2024-02-21T11:23:42;13.10;86.10
770;DHT22;368;48.698;9.116;2024-02-21T11:26:10;12.90;84.40
770;DHT22;368;48.698;9.116;2024-02-21T11:28:37;13.30;84.30
770;DHT22;368;48.698;9.116;2024-02-21T11:31:07;13.10;83.10
770;DHT22;368;48.698;9.116;2024-02-21T11:33:35;12.90;82.70
770;DHT22;368;48.698;9.116;2024-02-21T11:36:05;13.20;82.20
770;DHT22;368;48.698;9.116;2024-02-21T11:38:34;13.10;81.70
770;DHT22;368;48.698;9.116;2024-02-21T11:41:00;13.20;83.10
770;DHT22;368;48.698;9.116;2024-02-21T11:43:28;13.30;82.40
770;DHT22;368;48.698;9.116;2024-02-21T11:45:59;12.90;81.80
770;DHT22;368;48.698;9.116;2024-02-21T11:48:26;13.00;82.20
770;DHT22;368;48.698;9.116;2024-02-21T11:50:54;13.50;82.40
770;DHT22;368;48.698;9.116;2024-02-21T11:53:21;13.10;81.20
770;DHT22;368;48.698;9.116;2024-02-21T11:55:49;13.00;81.40
770;DHT22;368;48.698;9.116;2024-02-21T11:58:16;12.80;80.60
770;DHT22;368;48.698;9.116;2024-02-21T12:00:43;12.60;81.20
770;DHT22;368;48.698;9.116;2024-02-21T12:03:10;12.80;81.60
770;DHT22;368;48.698;9.116;2024-02-21T12:05:37;12.70;79.60
770;DHT22;368;48.698;9.116;2024-02-21T12:08:04;12.90;79.80
770;DHT22;368;48.698;9.116;2024-02-21T12:10:31;13.20;80.80
770;DHT22;368;48.698;9.116;2024-02-21T12:13:07;13.40;79.30
770;DHT22;368;48.698;9.116;2024-02-21T12:15:34;13.20;79.90
770;DHT22;368;48.698;9.116;2024-02-21T12:18:01;13.70;78.10
770;DHT22;368;48.698;9.116;2024-02-21T12:20:28;13.70;76.40
770;DHT22;368;48.698;9.116;2024-02-21T12:22:55;14.00;76.70
770;DHT22;368;48.698;9.116;2024-02-21T12:25:24;14.30;75.30
770;DHT22;368;48.698;9.116;2024-02-21T12:27:52;14.50;74.40
770;DHT22;368;48.698;9.116;2024-02-21T12:30:20;14.80;74.80
770;DHT22;368;48.698;9.116;2024-02-21T12:32:47;14.90;72.40
770;DHT22;368;48.698;9.116;2024-02-21T12:35:15;14.40;73.00
770;DHT22;368;48.698;9.116;2024-02-21T12:37:42;14.30;73.60
770;DHT22;368;48.698;9.116;2024-02-21T12:40:11;14.80;73.50
770;DHT22;368;48.698;9.116;2024-02-21T12:42:38;14.80;72.40
770;DHT22;368;48.698;9.116;2024-02-21T12:45:09;14.80;70.90
770;DHT22;368;48.698;9.116;2024-02-21T12:47:37;14.50;71.90
770;DHT22;368;48.698;9.116;2024-02-21T12:50:06;14.00;70.70
770;DHT22;368;48.698;9.116;2024-02-21T12:52:33;14.40;71.00
770;DHT22;368;48.698;9.116;2024-02-21T12:54:59;14.30;69.70
770;DHT22;368;48.698;9.116;2024-02-21T12:57:26;14.50;71.70
770;DHT22;368;48.698;9.116;2024-02-21T12:59:53;14.40;71.10
770;DHT22;368;48.698;9.116;2024-02-21T13:02:20;14.20;71.70
770;DHT22;368;48.698;9.116;2024-02-21T13:04:48;13.50;70.20
770;DHT22;368;48.698;9.116;2024-02-21T13:07:14;13.50;70.60
770;DHT22;368;48.698;9.116;2024-02-21T13:09:41;13.60;72.50
770;DHT22;368;48.698;9.116;2024-02-21T13:12:08;13.70;71.40
770;DHT22;368;48.698;9.116;2024-02-21T13:14:35;14.10;71.50
770;DHT22;368;48.698;9.116;2024-02-21T13:17:04;14.10;70.70
770;DHT22;368;48.698;9.116;2024-02-21T13:19:31;13.50;69.10
770;DHT22;368;48.698;9.116;2024-02-21T13:21:59;13.80;69.40
770;DHT22;368;48.698;9.116;2024-02-21T13:24:27;13.60;68.40
770;DHT22;368;48.698;9.116;2024-02-21T13:26:54;13.70;68.80
770;DHT22;368;48.698;9.116;2024-02-21T13:29:21;13.70;69.60
770;DHT22;368;48.698;9.116;2024-02-21T13:31:48;13.90;68.70
770;DHT22;368;48.698;9.116;2024-02-21T13:34:15;14.40;69.50
770;DHT22;368;48.698;9.116;2024-02-21T13:36:42;14.60;68.00
770;DHT22;368;48.698;9.116;2024-02-21T13:39:10;14.80;68.90
770;DHT22;368;48.698;9.116;2024-02-21T13:41:41;14.60;67.10
770;DHT22;368;48.698;9.116;2024-02-21T13:44:08;14.10;67.60
770;DHT22;368;48.698;9.116;2024-02-21T13:46:35;13.90;68.60
770;DHT22;368;48.698;9.116;2024-02-21T13:49:04;13.50;68.60
770;DHT22;368;48.698;9.116;2024-02-21T13:51:33;13.60;68.60
770;DHT22;368;48.698;9.116;2024-02-21T13:54:01;13.30;69.80
770;DHT22;368;48.698;9.116;2024-02-21T13:56:30;13.20;69.10
770;DHT22;368;48.698;9.116;2024-02-21T13:58:57;13.20;69.90
770;DHT22;368;48.698;9.116;2024-02-21T14:01:25;13.10;69.90
770;DHT22;368;48.698;9.116;2024-02-21T14:03:52;13.20;70.60
770;DHT22;368;48.698;9.116;2024-02-21T14:06:19;13.40;71.40
770;DHT22;368;48.698;9.116;2024-02-21T14:08:46;13.60;70.30
770;DHT22;368;48.698;9.116;2024-02-21T14:11:12;13.20;71.00
770;DHT22;368;48.698;9.116;2024-02-21T14:13:41;13.20;72.00
770;DHT22;368;48.698;9.116;2024-02-21T14:16:09;13.30;72.30
770;DHT22;368;48.698;9.116;2024-02-21T14:18:38;13.40;73.10
770;DHT22;368;48.698;9.116;2024-02-21T14:21:06;13.10;73.10
770;DHT22;368;48.698;9.116;2024-02-21T14:23:33;13.20;73.90
770;DHT22;368;48.698;9.116;2024-02-21T14:26:00;13.30;73.80
770;DHT22;368;48.698;9.116;2024-02-21T14:28:27;13.00;73.80
770;DHT22;368;48.698;9.116;2024-02-21T14:30:56;13.20;74.20
770;DHT22;368;48.698;9.116;2024-02-21T14:33:23;13.20;75.20
770;DHT22;368;48.698;9.116;2024-02-21T14:35:50;13.00;75.10
770;DHT22;368;48.698;9.116;2024-02-21T14:38:18;12.80;76.10
770;DHT22;368;48.698;9.116;2024-02-21T14:40:45;13.30;76.20
770;DHT22;368;48.698;9.116;2024-02-21T14:43:12;13.10;75.00
770;DHT22;368;48.698;9.116;2024-02-21T14:45:39;12.80;76.10
770;DHT22;368;48.698;9.116;2024-02-21T14:48:08;12.70;75.60
770;DHT22;368;48.698;9.116;2024-02-21T14:50:34;12.90;76.70
770;DHT22;368;48.698;9.116;2024-02-21T14:53:01;12.70;77.40
770;DHT22;368;48.698;9.116;2024-02-21T14:55:28;12.70;77.20
770;DHT22;368;48.698;9.116;2024-02-21T14:57:55;12.50;78.00
770;DHT22;368;48.698;9.116;2024-02-21T15:00:22;12.60;79.00
770;DHT22;368;48.698;9.116;2024-02-21T15:02:55;12.60;79.10
770;DHT22;368;48.698;9.116;2024-02-21T15:05:23;12.60;80.00
770;DHT22;368;48.698;9.116;2024-02-21T15:07:50;12.30;80.60
770;DHT22;368;48.698;9.116;2024-02-21T15:10:17;12.50;81.00
770;DHT22;368;48.698;9.116;2024-02-21T15:12:44;12.60;81.30
770;DHT22;368;48.698;9.116;2024-02-21T15:15:11;12.60;80.90
770;DHT22;368;48.698;9.116;2024-02-21T15:17:38;12.20;81.70
770;DHT22;368;48.698;9.116;2024-02-21T15:20:06;12.30;81.50
770;DHT22;368;48.698;9.116;2024-02-21T15:22:35;12.30;81.90
770;DHT22;368;48.698;9.116;2024-02-21T15:25:02;12.50;82.60
770;DHT22;368;48.698;9.116;2024-02-21T15:27:31;12.30;82.20
770;DHT22;368;48.698;9.116;2024-02-21T15:29:58;12.10;82.80
770;DHT22;368;48.698;9.116;2024-02-21T15:32:25;12.30;82.60
770;DHT22;368;48.698;9.116;2024-02-21T15:34:52;12.10;83.80
770;DHT22;368;48.698;9.116;2024-02-21T15:37:19;12.10;83.50
770;DHT22;368;48.698;9.116;2024-02-21T15:39:47;12.30;84.00
770;DHT22;368;48.698;9.116;2024-02-21T15:42:14;12.20;84.30
770;DHT22;368;48.698;9.116;2024-02-21T15:44:41;12.00;84.70
770;DHT22;368;48.698;9.116;2024-02-21T15:47:08;12.10;85.10
770;DHT22;368;48.698;9.116;2024-02-21T15:49:35;11.90;85.50
770;DHT22;368;48.698;9.116;2024-02-21T15:52:02;12.10;85.20
770;DHT22;368;48.698;9.116;2024-02-21T15:54:29;12.20;86.00
770;DHT22;368;48.698;9.116;2024-02-21T15:56:57;11.90;85.70
770;DHT22;368;48.698;9.116;2024-02-21T15:59:24;11.90;86.10
770;DHT22;368;48.698;9.116;2024-02-21T16:01:50;11.80;86.60
770;DHT22;368;48.698;9.116;2024-02-21T16:04:17;11.80;86.10
770;DHT22;368;48.698;9.116;2024-02-21T16:06:44;11.70;85.90
770;DHT22;368;48.698;9.116;2024-02-21T16:09:16;11.60;86.70
770;DHT22;368;48.698;9.116;2024-02-21T16:11:43;11.60;87.30
770;DHT22;368;48.698;9.116;2024-02-21T16:14:13;11.70;88.10
770;DHT22;368;48.698;9.116;2024-02-21T16:16:40;11.60;87.60
770;DHT22;368;48.698;9.116;2024-02-21T16:19:08;11.40;88.30
770;DHT22;368;48.698;9.116;2024-02-21T16:21:35;11.50;88.20
770;DHT22;368;48.698;9.116;2024-02-21T16:24:03;11.60;88.30
770;DHT22;368;48.698;9.116;2024-02-21T16:26:30;11.50;88.40
770;DHT22;368;48.698;9.116;2024-02-21T16:28:57;11.40;88.50
770;DHT22;368;48.698;9.116;2024-02-21T16:31:25;11.40;89.20
770;DHT22;368;48.698;9.116;2024-02-21T16:33:52;11.40;89.40
770;DHT22;368;48.698;9.116;2024-02-21T16:36:22;11.00;89.60
770;DHT22;368;48.698;9.116;2024-02-21T16:38:50;11.00;90.00
770;DHT22;368;48.698;9.116;2024-02-21T16:41:17;11.00;90.30
770;DHT22;368;48.698;9.116;2024-02-21T16:43:44;11.10;90.60
770;DHT22;368;48.698;9.116;2024-02-21T16:46:11;11.00;90.60